createdAt,value
2019-02-08T00:02:11.212Z,83.06
2019-02-08T00:04:40.545Z,83.10
2019-02-08T00:07:10.518Z,83.34
2019-02-08T00:09:40.110Z,83.36
2019-02-08T00:12:09.555Z,83.29
2019-02-08T00:14:38.954Z,83.21
2019-02-08T00:17:08.420Z,83.18
2019-02-08T00:19:37.731Z,83.22
2019-02-08T00:22:07.666Z,83.29
2019-02-08T00:24:37.374Z,83.16
2019-02-08T00:27:06.734Z,83.17
2019-02-08T00:29:36.083Z,83.26
2019-02-08T00:32:05.448Z,83.08
2019-02-08T00:34:34.792Z,83.12
2019-02-08T00:37:04.164Z,83.04
2019-02-08T00:39:33.898Z,83.01
2019-02-08T00:42:03.249Z,82.95
2019-02-08T00:44:32.592Z,82.83
2019-02-08T00:47:01.962Z,83.00
2019-02-08T00:49:31.297Z,82.84
2019-02-08T00:52:00.662Z,83.00
2019-02-08T00:54:30.649Z,82.97
2019-02-08T00:57:01.173Z,83.11
2019-02-08T00:59:33.369Z,83.15
2019-02-08T01:02:06.596Z,83.18
2019-02-08T01:04:42.533Z,83.24
2019-02-08T01:07:12.326Z,83.14
2019-02-08T01:09:41.660Z,83.33
2019-02-08T01:12:11.285Z,83.40
2019-02-08T01:14:40.689Z,83.40
2019-02-08T01:17:10.050Z,83.36
2019-02-08T01:19:39.423Z,83.26
2019-02-08T01:22:09.245Z,83.11
2019-02-08T01:24:38.574Z,83.29
2019-02-08T01:27:08.017Z,83.35
2019-02-08T01:29:37.461Z,83.42
2019-02-08T01:32:06.843Z,83.46
2019-02-08T01:34:36.175Z,83.55
2019-02-08T01:37:05.536Z,83.58
2019-02-08T01:39:34.868Z,83.46
2019-02-08T01:42:04.235Z,83.34
2019-02-08T01:44:33.574Z,83.44
2019-02-08T01:47:02.939Z,83.35
2019-02-08T01:49:32.285Z,83.32
2019-02-08T01:52:01.656Z,83.40
2019-02-08T01:54:30.990Z,83.39
2019-02-08T01:57:00.359Z,83.26
2019-02-08T01:59:29.697Z,83.23
2019-02-08T02:01:59.062Z,83.21
2019-02-08T02:04:28.395Z,82.97
2019-02-08T02:06:59.545Z,82.92
2019-02-08T02:09:43.154Z,82.77
2019-02-08T02:12:17.790Z,82.72
2019-02-08T02:14:51.493Z,82.72
2019-02-08T02:17:20.840Z,82.96
2019-02-08T02:19:50.176Z,82.79
2019-02-08T02:22:19.542Z,82.68
2019-02-08T02:24:48.881Z,82.67
2019-02-08T02:27:18.264Z,82.73
2019-02-08T02:29:47.593Z,82.65
2019-02-08T02:32:16.959Z,82.62
2019-02-08T02:34:46.291Z,82.51
2019-02-08T02:37:15.655Z,82.54
2019-02-08T02:39:44.995Z,82.41
2019-02-08T02:42:14.525Z,82.38
2019-02-08T02:44:43.861Z,82.38
2019-02-08T02:47:13.235Z,82.22
2019-02-08T02:49:43.005Z,82.00
2019-02-08T02:52:12.370Z,81.95
2019-02-08T02:54:41.717Z,81.78
2019-02-08T02:57:11.202Z,81.74
2019-02-08T02:59:40.537Z,81.51
2019-02-08T03:02:09.910Z,81.50
2019-02-08T03:04:39.249Z,81.43
2019-02-08T03:07:09.193Z,81.32
2019-02-08T03:09:38.526Z,81.39
2019-02-08T03:12:07.891Z,81.40
2019-02-08T03:14:37.358Z,81.25
2019-02-08T03:17:14.245Z,81.13
2019-02-08T03:19:46.807Z,81.09
2019-02-08T03:22:18.646Z,81.07
2019-02-08T03:24:50.643Z,81.09
2019-02-08T03:27:20.078Z,80.91
2019-02-08T03:29:49.417Z,80.95
2019-02-08T03:32:18.857Z,80.89
2019-02-08T03:34:48.220Z,80.82
2019-02-08T03:37:17.586Z,80.77
2019-02-08T03:39:47.121Z,80.73
2019-02-08T03:42:16.454Z,80.86
2019-02-08T03:44:45.819Z,80.83
2019-02-08T03:47:15.156Z,80.96
2019-02-08T03:49:44.522Z,80.72
2019-02-08T03:52:14.234Z,80.79
2019-02-08T03:54:43.605Z,80.75
2019-02-08T03:57:12.946Z,80.65
2019-02-08T03:59:42.308Z,80.64
2019-02-08T04:02:11.639Z,80.62
2019-02-08T04:04:41.012Z,80.84
2019-02-08T04:07:10.347Z,80.86
2019-02-08T04:09:39.704Z,81.10
2019-02-08T04:12:09.056Z,81.34
2019-02-08T04:14:38.415Z,81.53
2019-02-08T04:17:07.762Z,81.52
2019-02-08T04:19:37.432Z,81.53
2019-02-08T04:22:06.774Z,81.46
2019-02-08T04:24:36.136Z,81.40
2019-02-08T04:27:05.473Z,81.43
2019-02-08T04:29:34.845Z,81.46
2019-02-08T04:32:05.585Z,81.40
2019-02-08T04:34:38.259Z,81.30
2019-02-08T04:37:13.574Z,81.39
2019-02-08T04:39:44.991Z,81.35
2019-02-08T04:42:14.348Z,81.35
2019-02-08T04:44:43.716Z,81.18
2019-02-08T04:47:13.049Z,81.36
2019-02-08T04:49:42.419Z,81.48
2019-02-08T04:52:11.749Z,81.54
2019-02-08T04:54:41.123Z,81.37
2019-02-08T04:57:10.525Z,81.50
2019-02-08T04:59:40.373Z,81.55
2019-02-08T05:02:09.707Z,81.50
2019-02-08T05:04:39.247Z,81.47
2019-02-08T05:07:08.650Z,81.46
2019-02-08T05:09:38.022Z,81.51
2019-02-08T05:12:07.353Z,81.56
2019-02-08T05:14:36.708Z,81.57
2019-02-08T05:17:06.049Z,81.68
2019-02-08T05:19:35.414Z,81.58
2019-02-08T05:22:04.752Z,81.32
2019-02-08T05:24:34.120Z,81.44
2019-02-08T05:27:03.455Z,81.36
2019-02-08T05:29:32.828Z,81.15
2019-02-08T05:32:02.162Z,81.24
2019-02-08T05:34:31.525Z,81.22
2019-02-08T05:37:00.861Z,81.05
2019-02-08T05:39:30.228Z,81.13
2019-02-08T05:42:04.221Z,81.00
2019-02-08T05:44:43.053Z,80.78
2019-02-08T05:47:14.200Z,80.91
2019-02-08T05:49:44.139Z,80.61
2019-02-08T05:52:14.300Z,80.62
2019-02-08T05:54:54.256Z,80.71
2019-02-08T05:57:19.623Z,80.76
2019-02-08T05:59:48.988Z,80.65
2019-02-08T06:02:18.313Z,80.57
2019-02-08T06:04:47.709Z,80.54
2019-02-08T06:07:17.044Z,80.46
2019-02-08T06:09:46.420Z,80.43
2019-02-08T06:12:15.755Z,80.47
2019-02-08T06:14:45.107Z,80.65
2019-02-08T06:17:14.449Z,80.22
2019-02-08T06:19:43.816Z,80.53
2019-02-08T06:22:18.558Z,80.64
2019-02-08T06:24:50.487Z,80.87
2019-02-08T06:27:21.291Z,80.79
2019-02-08T06:29:57.350Z,80.96
2019-02-08T06:32:26.977Z,81.02
2019-02-08T06:34:56.386Z,81.07
2019-02-08T06:37:25.725Z,81.33
2019-02-08T06:39:55.098Z,81.66
2019-02-08T06:42:31.272Z,81.41
2019-02-08T06:45:10.153Z,81.49
2019-02-08T06:47:46.687Z,81.57
2019-02-08T06:50:22.778Z,81.48
2019-02-08T06:52:57.007Z,81.29
2019-02-08T06:55:32.156Z,81.28
2019-02-08T06:58:03.298Z,81.16
2019-02-08T07:00:36.979Z,81.10
2019-02-08T07:03:07.950Z,80.98
2019-02-08T07:05:48.671Z,80.97
2019-02-08T07:08:35.591Z,81.09
2019-02-08T07:11:23.441Z,81.10
2019-02-08T07:14:10.404Z,81.07
2019-02-08T07:16:53.403Z,81.00
2019-02-08T07:19:25.146Z,80.77
2019-02-08T07:22:11.141Z,80.66
2019-02-08T07:24:56.576Z,80.59
2019-02-08T07:27:37.002Z,80.32
2019-02-08T07:30:13.927Z,80.26
2019-02-08T07:32:56.772Z,80.21
2019-02-08T07:35:33.461Z,80.09
2019-02-08T07:38:21.143Z,79.84
2019-02-08T07:40:56.778Z,79.67
2019-02-08T07:43:30.559Z,79.31
2019-02-08T07:46:17.234Z,79.32
2019-02-08T07:49:00.162Z,78.89
2019-02-08T07:51:31.143Z,78.65
2019-02-08T07:54:16.722Z,78.36
2019-02-08T07:56:53.671Z,78.08
2019-02-08T07:59:27.336Z,77.92
2019-02-08T08:02:17.004Z,77.96
2019-02-08T08:05:02.264Z,77.73
2019-02-08T08:07:48.030Z,77.46
2019-02-08T08:10:21.735Z,77.20
2019-02-08T08:13:09.858Z,76.96
2019-02-08T08:15:46.834Z,76.35
2019-02-08T08:18:33.463Z,76.06
2019-02-08T08:21:07.403Z,75.86
2019-02-08T08:23:41.081Z,75.13
2019-02-08T08:26:15.446Z,75.15
2019-02-08T08:29:03.473Z,74.05
2019-02-08T08:31:47.740Z,73.97
2019-02-08T08:34:26.514Z,74.00
2019-02-08T08:37:13.846Z,73.33
2019-02-08T08:39:58.309Z,72.74
2019-02-08T08:42:39.366Z,72.75
2019-02-08T08:45:26.854Z,71.52
2019-02-08T08:48:05.391Z,71.01
2019-02-08T08:50:50.064Z,70.78
2019-02-08T08:53:25.633Z,69.72
2019-02-08T08:56:01.206Z,68.85
2019-02-08T08:58:36.329Z,67.15
2019-02-08T09:01:14.927Z,64.83
2019-02-08T09:04:12.934Z,60.10
2019-02-08T09:07:17.920Z,56.37
2019-02-08T09:09:59.062Z,55.13
2019-02-08T09:12:46.849Z,55.50
2019-02-08T09:15:41.951Z,56.47
2019-02-08T09:18:47.856Z,53.49
2019-02-08T09:21:36.441Z,55.51
2019-02-08T09:24:14.761Z,56.58
2019-02-08T09:27:21.785Z,56.76
2019-02-08T09:30:09.040Z,57.60
2019-02-08T09:32:42.315Z,55.23
2019-02-08T09:35:23.626Z,53.43
2019-02-08T09:38:04.860Z,51.01
2019-02-08T09:40:40.647Z,51.17
2019-02-08T09:43:30.921Z,49.35
2019-02-08T09:46:19.742Z,48.34
2019-02-08T09:48:52.539Z,51.70
2019-02-08T09:51:49.049Z,48.96
2019-02-08T09:54:36.596Z,48.02
2019-02-08T09:57:12.200Z,47.10
2019-02-08T09:59:59.460Z,49.56
2019-02-08T10:02:54.536Z,53.73
2019-02-08T10:05:27.131Z,53.61
2019-02-08T10:08:31.138Z,52.34
2019-02-08T10:11:15.469Z,51.52
2019-02-08T10:14:06.338Z,51.78
2019-02-08T10:16:58.094Z,53.91
2019-02-08T10:19:58.803Z,54.39
2019-02-08T10:22:47.752Z,52.83
2019-02-08T10:25:46.907Z,55.55
2019-02-08T10:28:35.994Z,56.32
2019-02-08T10:31:11.575Z,54.45
2019-02-08T10:34:00.471Z,54.51
2019-02-08T10:36:45.095Z,55.86
2019-02-08T10:39:33.848Z,54.14
2019-02-08T10:42:21.324Z,53.76
2019-02-08T10:45:13.117Z,54.83
2019-02-08T10:48:06.496Z,54.05
2019-02-08T10:51:13.644Z,53.80
2019-02-08T10:54:20.875Z,50.11
2019-02-08T10:57:11.675Z,48.21
2019-02-08T11:00:02.148Z,47.02
2019-02-08T11:02:46.405Z,46.07
2019-02-08T11:05:47.279Z,45.87
2019-02-08T11:08:39.314Z,45.67
2019-02-08T11:11:23.954Z,44.75
2019-02-08T11:14:30.909Z,45.55
2019-02-08T11:17:18.605Z,45.07
2019-02-08T11:19:49.951Z,43.94
2019-02-08T11:22:19.334Z,42.30
2019-02-08T11:24:48.682Z,41.33
2019-02-08T11:27:18.138Z,41.14
2019-02-08T11:29:47.473Z,41.47
2019-02-08T11:32:16.865Z,41.88
2019-02-08T11:34:46.214Z,40.64
2019-02-08T11:37:15.634Z,41.57
2019-02-08T11:39:44.983Z,44.47
2019-02-08T11:42:14.372Z,44.86
2019-02-08T11:44:43.726Z,44.32
2019-02-08T11:47:13.183Z,43.88
2019-02-08T11:49:42.480Z,43.51
2019-02-08T11:52:11.890Z,44.37
2019-02-08T11:54:41.300Z,44.50
2019-02-08T11:57:11.184Z,44.44
2019-02-08T11:59:40.535Z,44.36
2019-02-08T12:02:09.911Z,42.59
2019-02-08T12:04:39.435Z,41.54
2019-02-08T12:07:08.813Z,41.13
2019-02-08T12:09:38.149Z,39.36
2019-02-08T12:12:07.525Z,39.37
2019-02-08T12:14:36.874Z,38.23
2019-02-08T12:17:06.245Z,36.51
2019-02-08T12:19:35.602Z,36.48
2019-02-08T12:22:04.972Z,37.78
2019-02-08T12:24:34.313Z,37.78
2019-02-08T12:27:03.732Z,36.41
2019-02-08T12:29:33.121Z,36.59
2019-02-08T12:32:02.476Z,36.62
2019-02-08T12:34:31.920Z,35.99
2019-02-08T12:37:01.262Z,34.67
2019-02-08T12:39:30.631Z,35.04
2019-02-08T12:41:59.977Z,36.96
2019-02-08T12:44:31.700Z,36.24
2019-02-08T12:47:09.474Z,35.88
2019-02-08T12:49:42.077Z,36.73
2019-02-08T12:52:11.910Z,36.08
2019-02-08T12:54:41.346Z,36.38
2019-02-08T12:57:10.696Z,37.10
2019-02-08T12:59:40.174Z,36.21
2019-02-08T13:02:09.517Z,35.37
2019-02-08T13:04:38.898Z,36.34
2019-02-08T13:07:08.237Z,36.25
2019-02-08T13:09:37.626Z,36.78
2019-02-08T13:12:06.958Z,37.03
2019-02-08T13:14:36.354Z,35.71
2019-02-08T13:17:15.790Z,35.56
2019-02-08T13:19:48.681Z,34.31
2019-02-08T13:22:26.334Z,34.77
2019-02-08T13:24:59.818Z,35.46
2019-02-08T13:27:29.206Z,35.31
2019-02-08T13:30:01.468Z,35.37
2019-02-08T13:32:32.363Z,36.14
2019-02-08T13:35:06.293Z,35.48
2019-02-08T13:37:39.291Z,35.03
2019-02-08T13:40:12.139Z,34.80
2019-02-08T13:42:41.489Z,35.03
2019-02-08T13:45:13.096Z,35.36
2019-02-08T13:47:46.375Z,36.41
2019-02-08T13:50:31.471Z,37.46
2019-02-08T13:53:00.813Z,36.79
2019-02-08T13:55:30.195Z,37.15
2019-02-08T13:58:00.010Z,37.17
2019-02-08T14:00:37.650Z,36.85
2019-02-08T14:03:11.875Z,37.05
2019-02-08T14:05:50.168Z,38.67
2019-02-08T14:08:23.853Z,37.82
2019-02-08T14:11:00.490Z,37.38
2019-02-08T14:13:30.579Z,37.87
2019-02-08T14:15:59.921Z,40.57
2019-02-08T14:18:29.833Z,41.53
2019-02-08T14:20:59.218Z,43.73
2019-02-08T14:23:28.555Z,44.90
2019-02-08T14:25:57.932Z,45.94
2019-02-08T14:28:27.277Z,46.98
2019-02-08T14:30:56.654Z,47.85
2019-02-08T14:33:25.995Z,47.89
2019-02-08T14:35:55.909Z,47.90
2019-02-08T14:38:25.574Z,48.20
2019-02-08T14:40:54.949Z,49.55
2019-02-08T14:43:24.296Z,50.01
2019-02-08T14:45:53.661Z,49.86
2019-02-08T14:48:22.997Z,49.27
2019-02-08T14:50:52.368Z,48.21
2019-02-08T14:53:21.714Z,49.49
2019-02-08T14:55:51.096Z,50.90
2019-02-08T14:58:20.434Z,51.92
2019-02-08T15:00:49.810Z,52.99
2019-02-08T15:03:19.148Z,53.57
2019-02-08T15:05:48.513Z,54.41
2019-02-08T15:08:17.842Z,54.75
2019-02-08T15:10:49.949Z,55.38
2019-02-08T15:13:19.285Z,56.00
2019-02-08T15:15:48.649Z,56.51
2019-02-08T15:18:18.793Z,56.80
2019-02-08T15:20:48.131Z,57.20
2019-02-08T15:23:17.457Z,57.40
2019-02-08T15:25:46.987Z,57.91
2019-02-08T15:28:16.342Z,58.37
2019-02-08T15:30:45.789Z,58.89
2019-02-08T15:33:15.332Z,59.16
2019-02-08T15:35:44.718Z,59.40
2019-02-08T15:38:14.058Z,59.51
2019-02-08T15:40:46.445Z,59.79
2019-02-08T15:43:17.825Z,59.83
2019-02-08T15:45:50.738Z,60.17
2019-02-08T15:48:20.084Z,60.56
2019-02-08T15:50:49.535Z,61.16
2019-02-08T15:53:18.878Z,61.19
2019-02-08T15:56:00.481Z,61.37
2019-02-08T15:58:29.823Z,61.81
2019-02-08T16:00:59.195Z,62.00
2019-02-08T16:03:28.603Z,62.32
2019-02-08T16:05:57.980Z,62.28
2019-02-08T16:08:27.322Z,62.62
2019-02-08T16:10:56.683Z,63.10
2019-02-08T16:13:26.033Z,63.27
2019-02-08T16:15:55.405Z,63.74
2019-02-08T16:18:24.753Z,64.03
2019-02-08T16:20:54.126Z,64.21
2019-02-08T16:23:23.468Z,64.62
2019-02-08T16:25:52.840Z,64.82
2019-02-08T16:28:22.188Z,65.00
2019-02-08T16:30:51.558Z,65.28
2019-02-08T16:33:20.943Z,65.35
2019-02-08T16:35:50.310Z,65.42
2019-02-08T16:38:19.722Z,65.63
2019-02-08T16:40:49.100Z,65.81
2019-02-08T16:43:18.441Z,65.87
2019-02-08T16:45:47.813Z,65.85
2019-02-08T16:48:17.147Z,65.98
2019-02-08T16:50:46.517Z,65.94
2019-02-08T16:53:15.860Z,66.31
2019-02-08T16:55:45.226Z,66.25
2019-02-08T16:58:14.563Z,66.28
2019-02-08T17:00:43.953Z,66.33
2019-02-08T17:03:14.325Z,66.41
2019-02-08T17:05:44.539Z,66.37
2019-02-08T17:08:13.882Z,66.83
2019-02-08T17:10:43.244Z,66.94
2019-02-08T17:13:12.690Z,66.68
2019-02-08T17:15:42.591Z,66.89
2019-02-08T17:18:11.967Z,67.29
2019-02-08T17:20:49.035Z,67.35
2019-02-08T17:23:18.896Z,67.62
2019-02-08T17:25:48.247Z,67.93
2019-02-08T17:28:17.627Z,67.96
2019-02-08T17:30:46.973Z,68.36
2019-02-08T17:33:16.605Z,68.48
2019-02-08T17:35:45.953Z,68.73
2019-02-08T17:38:15.313Z,68.57
2019-02-08T17:40:47.094Z,68.58
2019-02-08T17:43:16.548Z,68.12
2019-02-08T17:45:45.884Z,68.38
2019-02-08T17:48:16.193Z,68.29
2019-02-08T17:50:45.536Z,68.94
2019-02-08T17:53:14.902Z,69.71
2019-02-08T17:55:44.249Z,69.96
2019-02-08T17:58:13.857Z,70.54
2019-02-08T18:00:46.377Z,70.87
2019-02-08T18:03:15.744Z,70.83
2019-02-08T18:05:46.719Z,70.88
2019-02-08T18:08:16.089Z,70.98
2019-02-08T18:10:45.429Z,70.88
2019-02-08T18:13:14.934Z,71.10
2019-02-08T18:15:44.278Z,71.09
2019-02-08T18:18:15.850Z,71.27
2019-02-08T18:20:50.679Z,71.54
2019-02-08T18:23:20.050Z,71.63
2019-02-08T18:25:49.393Z,71.72
2019-02-08T18:28:18.753Z,71.57
2019-02-08T18:30:48.091Z,71.54
2019-02-08T18:33:17.445Z,71.65
2019-02-08T18:35:46.970Z,71.87
2019-02-08T18:38:16.560Z,71.32
2019-02-08T18:40:45.897Z,71.44
2019-02-08T18:43:15.262Z,71.57
2019-02-08T18:45:44.598Z,71.76
2019-02-08T18:48:13.965Z,72.30
2019-02-08T18:50:46.401Z,72.50
2019-02-08T18:53:15.774Z,72.08
2019-02-08T18:55:45.371Z,72.32
2019-02-08T18:58:19.260Z,73.15
2019-02-08T19:00:47.901Z,72.93
2019-02-08T19:03:17.240Z,73.07
2019-02-08T19:05:46.574Z,72.64
2019-02-08T19:08:15.950Z,73.13
2019-02-08T19:10:45.356Z,73.44
2019-02-08T19:13:14.716Z,73.35
2019-02-08T19:15:44.050Z,73.11
2019-02-08T19:18:13.709Z,73.14
2019-02-08T19:20:43.057Z,73.07
2019-02-08T19:23:12.771Z,73.19
2019-02-08T19:25:44.162Z,73.78
2019-02-08T19:28:14.629Z,74.15
2019-02-08T19:30:44.805Z,74.16
2019-02-08T19:33:14.597Z,74.19
2019-02-08T19:35:43.935Z,74.29
2019-02-08T19:38:13.652Z,74.27
2019-02-08T19:40:45.386Z,74.14
2019-02-08T19:43:14.794Z,74.10
2019-02-08T19:45:44.108Z,74.00
2019-02-08T19:48:14.940Z,74.02
2019-02-08T19:50:48.143Z,74.10
2019-02-08T19:53:17.517Z,73.96
2019-02-08T19:55:46.858Z,73.94
2019-02-08T19:58:16.635Z,74.08
2019-02-08T20:00:45.994Z,74.02
2019-02-08T20:03:15.598Z,73.40
2019-02-08T20:05:45.294Z,73.73
2019-02-08T20:08:14.708Z,73.71
2019-02-08T20:10:48.779Z,74.19
2019-02-08T20:13:18.136Z,73.50
2019-02-08T20:15:47.520Z,73.47
2019-02-08T20:18:16.862Z,73.91
2019-02-08T20:20:46.624Z,73.91
2019-02-08T20:23:15.941Z,74.08
2019-02-08T20:25:46.377Z,74.12
2019-02-08T20:28:15.788Z,74.54
2019-02-08T20:30:46.632Z,74.09
2019-02-08T20:33:15.965Z,74.33
2019-02-08T20:35:46.674Z,74.15
2019-02-08T20:38:16.099Z,73.96
2019-02-08T20:40:50.208Z,74.25
2019-02-08T20:43:19.635Z,74.12
2019-02-08T20:45:49.233Z,74.73
2019-02-08T20:48:20.628Z,74.98
2019-02-08T20:50:51.297Z,75.04
2019-02-08T20:53:20.692Z,75.13
2019-02-08T20:55:50.099Z,75.33
2019-02-08T20:58:19.755Z,75.44
2019-02-08T21:00:50.358Z,75.42
2019-02-08T21:03:19.783Z,75.24
2019-02-08T21:05:49.844Z,75.16
2019-02-08T21:08:19.249Z,75.00
2019-02-08T21:10:48.610Z,75.28
2019-02-08T21:13:19.461Z,75.31
2019-02-08T21:15:48.924Z,75.31
2019-02-08T21:18:18.248Z,75.78
2019-02-08T21:20:47.689Z,75.36
2019-02-08T21:23:17.025Z,75.94
2019-02-08T21:25:52.152Z,75.65
2019-02-08T21:28:18.648Z,75.67
2019-02-08T21:30:48.024Z,75.70
2019-02-08T21:33:17.544Z,75.69
2019-02-08T21:35:49.515Z,76.34
2019-02-08T21:38:19.194Z,76.32
2019-02-08T21:40:48.558Z,76.53
2019-02-08T21:43:17.893Z,76.72
2019-02-08T21:45:47.289Z,76.74
2019-02-08T21:48:16.625Z,76.60
2019-02-08T21:50:45.991Z,76.88
2019-02-08T21:53:15.369Z,77.14
2019-02-08T21:55:44.780Z,76.60
2019-02-08T21:58:14.122Z,76.97
2019-02-08T22:00:43.950Z,77.23
2019-02-08T22:03:13.617Z,77.07
2019-02-08T22:05:52.008Z,77.46
2019-02-08T22:08:21.346Z,77.50
2019-02-08T22:10:50.716Z,77.72
2019-02-08T22:13:20.049Z,77.74
2019-02-08T22:15:49.408Z,77.94
2019-02-08T22:18:20.225Z,77.85
2019-02-08T22:20:49.542Z,77.69
2019-02-08T22:23:20.534Z,77.53
2019-02-08T22:25:49.863Z,77.51
2019-02-08T22:28:19.228Z,77.20
2019-02-08T22:30:48.564Z,77.54
2019-02-08T22:33:17.930Z,77.57
2019-02-08T22:35:47.260Z,77.26
2019-02-08T22:38:16.633Z,77.21
2019-02-08T22:40:45.987Z,77.60
2019-02-08T22:43:15.352Z,77.49
2019-02-08T22:45:44.694Z,77.41
2019-02-08T22:48:14.535Z,77.21
2019-02-08T22:50:43.946Z,77.41
2019-02-08T22:53:13.331Z,77.21
2019-02-08T22:55:42.679Z,77.03
2019-02-08T22:58:12.622Z,77.80
2019-02-08T23:00:54.278Z,77.68
2019-02-08T23:03:23.585Z,76.78
2019-02-08T23:05:52.920Z,77.67
2019-02-08T23:08:22.295Z,77.45
2019-02-08T23:10:51.623Z,77.03
2019-02-08T23:13:21.002Z,77.79
2019-02-08T23:15:50.327Z,77.73
2019-02-08T23:18:19.699Z,77.85
2019-02-08T23:20:49.035Z,77.76
2019-02-08T23:23:18.397Z,77.62
2019-02-08T23:25:47.729Z,76.95
2019-02-08T23:28:17.095Z,77.64
2019-02-08T23:30:54.027Z,77.43
2019-02-08T23:33:23.392Z,76.75
2019-02-08T23:35:52.746Z,77.33
2019-02-08T23:38:22.121Z,76.85
2019-02-08T23:40:51.449Z,76.47
2019-02-08T23:43:20.816Z,76.93
2019-02-08T23:45:50.153Z,77.16
2019-02-08T23:48:19.520Z,77.35
2019-02-08T23:50:48.845Z,77.13
2019-02-08T23:53:18.214Z,77.05
2019-02-08T23:55:47.550Z,77.15
2019-02-08T23:58:16.936Z,77.22
